Time;durP1;ratioP1;P1;durP2;ratioP2;P2;SDS_P1;SDS_P2;PMS_P1;PMS_P2;Temp;Humidity;BMP_temperature;BMP_pressure;BME280_temperature;BME280_humidity;BME280_pressure;Samples;Min_cycle;Max_cycle;Signal;HPM_P1;HPM_P2
2021/04/08 00:01:16;;;;;;;1999.90;999.90;;;;;;;1.21;76.61;97882.31;5011606;28;20459;-64
2021/04/08 00:03:43;;;;;;;1999.90;999.90;;;;;;;1.39;75.58;97875.44;4996268;28;20046;-65
2021/04/08 00:06:11;;;;;;;1999.90;999.90;;;;;;;1.43;75.25;97875.69;5008377;28;20069;-64
2021/04/08 00:08:37;;;;;;;1999.90;999.90;;;;;;;1.40;74.69;97877.91;5006055;28;20396;-64
2021/04/08 00:11:04;;;;;;;1999.90;999.90;;;;;;;1.59;74.10;97871.81;5007580;28;20080;-64
2021/04/08 00:13:30;;;;;;;1999.90;999.90;;;;;;;1.59;73.81;97871.81;5011455;28;20041;-64
2021/04/08 00:15:56;;;;;;;1999.90;999.90;;;;;;;1.56;74.46;97875.09;5004812;28;20101;-64
2021/04/08 00:18:23;;;;;;;1999.90;999.90;;;;;;;1.53;74.42;97876.50;5003438;28;20072;-64
2021/04/08 00:20:49;;;;;;;1999.90;999.90;;;;;;;1.60;74.00;97865.28;5004825;28;20042;-64
2021/04/08 00:23:15;;;;;;;1999.90;999.90;;;;;;;1.72;73.38;97873.94;5010240;28;20057;-64
2021/04/08 00:25:41;;;;;;;1999.90;999.90;;;;;;;1.54;73.55;97880.03;5007655;28;20049;-64
2021/04/08 00:28:07;;;;;;;1999.90;999.90;;;;;;;1.40;74.36;97869.72;5010670;28;20505;-64
2021/04/08 00:30:42;;;;;;;1999.90;999.90;;;;;;;1.40;74.67;97879.81;5008019;28;20054;-64
2021/04/08 00:33:10;;;;;;;1999.90;999.90;;;;;;;1.52;73.96;97882.22;5011698;28;20456;-64
2021/04/08 00:35:36;;;;;;;1999.90;999.90;;;;;;;1.56;74.01;97875.09;5011839;28;20053;-64
2021/04/08 00:38:02;;;;;;;1999.90;999.90;;;;;;;1.51;74.22;97877.88;5003886;28;20049;-64
2021/04/08 00:40:29;;;;;;;1999.90;999.90;;;;;;;1.19;75.41;97876.31;5013491;28;20045;-65
2021/04/08 00:42:56;;;;;;;1999.90;999.90;;;;;;;1.07;76.03;97882.06;5001618;28;20571;-64
2021/04/08 00:45:22;;;;;;;1999.90;999.90;;;;;;;0.80;76.79;97880.44;5008337;28;20105;-64
2021/04/08 00:47:48;;;;;;;1999.90;999.90;;;;;;;0.70;77.42;97873.13;5002750;28;20050;-64
2021/04/08 00:50:15;;;;;;;1999.90;999.90;;;;;;;0.99;76.81;97883.44;5007237;28;20045;-64
2021/04/08 00:52:44;;;;;;;1999.90;999.90;;;;;;;0.56;77.85;97872.03;5002414;28;20050;-64
2021/04/08 00:55:11;;;;;;;1999.90;999.90;;;;;;;0.62;78.77;97876.38;5007516;28;20045;-64
2021/04/08 00:57:37;;;;;;;1999.90;999.90;;;;;;;0.46;78.55;97869.31;5006258;28;20049;-64
2021/04/08 01:00:06;;;;;;;1999.90;999.90;;;;;;;0.37;79.87;97870.94;5003344;28;20054;-64
2021/04/08 01:02:33;;;;;;;1999.90;999.90;;;;;;;0.22;79.49;97880.69;5010867;28;20062;-64
2021/04/08 01:05:00;;;;;;;1999.90;999.90;;;;;;;0.06;80.72;97877.16;5002318;28;20070;-64
2021/04/08 01:07:26;;;;;;;1999.90;999.90;;;;;;;0.03;81.60;97880.41;5007436;28;20046;-64
2021/04/08 01:09:52;;;;;;;1999.90;999.90;;;;;;;0.15;80.91;97880.97;5004780;28;20096;-64
2021/04/08 01:12:18;;;;;;;1999.90;999.90;;;;;;;0.24;81.21;97888.59;5009988;28;20045;-63
2021/04/08 01:14:45;;;;;;;1999.90;999.90;;;;;;;0.19;80.80;97885.88;5003572;28;20057;-64
2021/04/08 01:17:17;;;;;;;1999.90;999.90;;;;;;;-0.01;81.67;97888.28;5006582;28;20109;-64
2021/04/08 01:20:14;;;;;;;1999.90;999.90;;;;;;;0.15;82.29;97885.59;5002350;28;20077;-64
2021/04/08 01:22:58;;;;;;;1999.90;999.90;;;;;;;-0.02;82.88;97885.81;5002905;28;20046;-64
2021/04/08 01:25:49;;;;;;;1999.90;999.90;;;;;;;0.03;82.50;97885.84;5008072;28;20116;-64
2021/04/08 01:28:18;;;;;;;1999.90;999.90;;;;;;;0.14;82.83;97883.97;5005393;28;20103;-64
2021/04/08 01:30:46;;;;;;;1999.90;999.90;;;;;;;0.15;82.73;97882.88;5009025;28;20540;-64
2021/04/08 01:33:55;;;;;;;1999.90;999.90;;;;;;;0.26;82.44;97887.25;5006609;28;20050;-64
2021/04/08 01:36:25;;;;;;;1999.90;999.90;;;;;;;0.34;82.18;97883.16;5002392;28;20081;-64
2021/04/08 01:38:58;;;;;;;1999.90;999.90;;;;;;;0.30;82.24;97888.34;5006705;28;20050;-64
2021/04/08 01:41:25;;;;;;;1999.90;999.90;;;;;;;0.25;82.83;97884.78;5003769;28;20049;-64
2021/04/08 01:43:55;;;;;;;1999.90;999.90;;;;;;;0.54;81.64;97893.25;5004222;28;20112;-64
2021/04/08 01:46:23;;;;;;;1999.90;999.90;;;;;;;0.39;82.10;97880.47;5003870;28;20104;-64
2021/04/08 01:48:53;;;;;;;1999.90;999.90;;;;;;;0.43;81.73;97884.28;5005516;28;20448;-64
2021/04/08 01:51:23;;;;;;;1999.90;999.90;;;;;;;0.39;82.08;97890.50;5009103;28;20034;-64
2021/04/08 01:53:55;;;;;;;1999.90;999.90;;;;;;;0.61;81.29;97896.53;5005504;28;20049;-64
2021/04/08 01:56:23;;;;;;;1999.90;999.90;;;;;;;0.67;80.73;97891.88;5017280;28;20054;-64
2021/04/08 01:58:50;;;;;;;1999.90;999.90;;;;;;;0.48;82.04;97894.34;5003914;28;20761;-64
2021/04/08 02:01:18;;;;;;;1999.90;999.90;;;;;;;0.46;82.34;97901.94;5011325;28;20049;-64
2021/04/08 02:03:45;;;;;;;1999.90;999.90;;;;;;;0.53;82.41;97902.50;5005341;28;20173;-64
2021/04/08 02:06:12;;;;;;;1999.90;999.90;;;;;;;0.43;82.03;97906.06;5003627;28;20452;-64
2021/04/08 02:08:43;;;;;;;1999.90;999.90;;;;;;;0.69;81.56;97906.88;5034462;28;20093;-64
2021/04/08 02:11:11;;;;;;;1999.90;999.90;;;;;;;0.47;82.48;97904.41;5006320;28;20047;-64
2021/04/08 02:13:43;;;;;;;1999.90;999.90;;;;;;;0.66;81.14;97912.84;5004469;28;20116;-64
2021/04/08 02:16:11;;;;;;;1999.90;999.90;;;;;;;0.54;82.63;97909.59;5007195;28;20085;-64
2021/04/08 02:18:39;;;;;;;1999.90;999.90;;;;;;;0.55;84.18;97924.00;5008268;28;20045;-64
2021/04/08 02:21:07;;;;;;;1999.90;999.90;;;;;;;0.50;84.48;97919.38;5001865;28;20054;-64
2021/04/08 02:23:36;;;;;;;1999.90;999.90;;;;;;;0.57;85.52;97919.94;5010434;28;20045;-64
2021/04/08 02:26:07;;;;;;;1999.90;999.90;;;;;;;0.55;87.16;97924.00;5002777;28;20125;-64
2021/04/08 02:28:34;;;;;;;1999.90;999.90;;;;;;;0.33;89.22;97925.06;5007321;28;20468;-64
2021/04/08 02:31:01;;;;;;;1999.90;999.90;;;;;;;0.29;90.44;97922.06;5006119;28;20089;-64
2021/04/08 02:33:30;;;;;;;1999.90;999.90;;;;;;;0.07;91.83;97933.16;5008976;28;20052;-64
2021/04/08 02:36:00;;;;;;;1999.90;999.90;;;;;;;-0.14;92.84;97926.81;5003035;28;20132;-64
2021/04/08 02:38:32;;;;;;;1999.90;999.90;;;;;;;-0.05;94.92;97932.56;5009113;28;20061;-64
2021/04/08 02:41:00;;;;;;;1999.90;999.90;;;;;;;0.14;94.90;97932.91;5002726;28;20703;-64
2021/04/08 02:43:26;;;;;;;1999.90;999.90;;;;;;;0.40;95.30;97925.59;5004907;28;20501;-64
2021/04/08 02:45:52;;;;;;;1999.90;999.90;;;;;;;0.39;94.42;97932.16;5011245;28;20497;-65
2021/04/08 02:48:20;;;;;;;1999.90;999.90;;;;;;;0.21;95.35;97928.03;5000881;28;20445;-64
2021/04/08 02:50:52;;;;;;;1999.90;999.90;;;;;;;0.27;95.04;97929.69;5010235;28;20045;-64
2021/04/08 02:53:46;;;;;;;1999.90;999.90;;;;;;;0.49;94.91;97937.63;5002553;28;20531;-65
2021/04/08 02:56:19;;;;;;;1999.90;999.90;;;;;;;0.45;95.65;97932.97;5000744;28;20053;-64
2021/04/08 02:58:46;;;;;;;1999.90;999.90;;;;;;;0.69;94.11;97934.09;5002062;28;20053;-64
2021/04/08 03:01:17;;;;;;;1999.90;999.90;;;;;;;0.66;93.42;97939.25;5004627;28;20081;-65
2021/04/08 03:03:50;;;;;;;1999.90;999.90;;;;;;;0.35;95.59;97936.50;4992440;28;20058;-64
2021/04/08 03:06:17;;;;;;;1999.90;999.90;;;;;;;0.30;95.83;97937.28;5002765;28;20049;-64
2021/04/08 03:08:48;;;;;;;1999.90;999.90;;;;;;;0.23;96.56;97936.72;5008850;28;20046;-64
2021/04/08 03:11:19;;;;;;;1999.90;999.90;;;;;;;0.33;96.81;97947.63;5004717;28;20096;-64
2021/04/08 03:13:47;;;;;;;1999.90;999.90;;;;;;;0.16;97.25;97944.31;5008412;28;20112;-64
2021/04/08 03:16:18;;;;;;;1999.90;999.90;;;;;;;-0.02;98.16;97951.88;5004848;28;20178;-64
2021/04/08 03:18:46;;;;;;;1999.90;999.90;;;;;;;-0.09;98.98;97945.91;5010641;28;20138;-64
2021/04/08 03:21:13;;;;;;;1999.90;999.90;;;;;;;-0.23;99.20;97945.53;5004201;28;20497;-64
2021/04/08 03:23:41;;;;;;;1999.90;999.90;;;;;;;-0.19;98.92;97954.81;5011500;28;20057;-64
2021/04/08 03:26:13;;;;;;;1999.90;999.90;;;;;;;-0.37;99.60;97956.09;5011440;28;20095;-64
2021/04/08 03:28:39;;;;;;;1999.90;999.90;;;;;;;-0.26;100.00;97956.13;5008536;28;20552;-64
2021/04/08 03:31:06;;;;;;;1999.90;999.90;;;;;;;-0.24;100.00;97962.13;5015832;28;20054;-64
2021/04/08 03:33:33;;;;;;;1999.90;999.90;;;;;;;-0.08;100.00;97960.28;5007691;28;20567;-64
2021/04/08 03:36:01;;;;;;;1999.90;999.90;;;;;;;-0.37;100.00;97963.44;5008922;28;20496;-64
2021/04/08 03:38:28;;;;;;;1999.90;999.90;;;;;;;-0.14;100.00;97964.88;5003750;28;20045;-64
2021/04/08 03:40:57;;;;;;;1999.90;999.90;;;;;;;-0.27;100.00;97962.66;5011939;28;20050;-64
2021/04/08 03:43:24;;;;;;;1999.90;999.90;;;;;;;-0.23;100.00;97969.19;5007414;28;20049;-64
2021/04/08 03:45:51;;;;;;;1999.90;999.90;;;;;;;-0.42;100.00;97958.75;5007825;28;20123;-65
2021/04/08 03:48:18;;;;;;;1999.90;999.90;;;;;;;-0.48;100.00;97962.53;5009914;28;20049;-64
2021/04/08 03:50:48;;;;;;;1999.90;999.90;;;;;;;-0.36;100.00;97963.16;5008923;28;20053;-64
2021/04/08 03:53:16;;;;;;;1999.90;999.90;;;;;;;-0.06;100.00;97961.66;5008505;28;20095;-64
2021/04/08 03:55:43;;;;;;;1999.90;999.90;;;;;;;-0.08;100.00;97971.16;5005023;28;20046;-64
2021/04/08 03:58:11;;;;;;;1999.90;999.90;;;;;;;-0.07;100.00;97965.47;5008976;28;20050;-64
2021/04/08 04:00:38;;;;;;;1999.90;999.90;;;;;;;0.06;100.00;97968.75;5005387;28;20066;-65
2021/04/08 04:03:09;;;;;;;1999.90;999.90;;;;;;;0.16;99.42;97968.81;5008323;28;20062;-65
2021/04/08 04:05:39;;;;;;;1999.90;999.90;;;;;;;0.34;99.13;97962.88;5006505;28;20549;-65
2021/04/08 04:08:06;;;;;;;1999.90;999.90;;;;;;;0.31;98.24;97966.16;5000583;28;20058;-64
2021/04/08 04:10:39;;;;;;;1999.90;999.90;;;;;;;0.48;97.24;97959.66;5003403;28;20099;-65
2021/04/08 04:13:09;;;;;;;1999.90;999.90;;;;;;;0.55;97.22;97971.06;5006432;28;20058;-65
2021/04/08 04:15:36;;;;;;;1999.90;999.90;;;;;;;0.14;97.58;97979.94;5007531;28;20409;-64
2021/04/08 04:18:06;;;;;;;1999.90;999.90;;;;;;;0.40;97.47;97980.00;4998712;28;20414;-65
2021/04/08 04:20:33;;;;;;;1999.90;999.90;;;;;;;0.53;96.62;97975.97;5003818;28;20108;-64
2021/04/08 04:22:59;;;;;;;1999.90;999.90;;;;;;;0.55;96.45;97971.06;5000842;28;20053;-64
2021/04/08 04:25:25;;;;;;;1999.90;999.90;;;;;;;0.66;96.59;97970.00;5004410;28;20065;-65
2021/04/08 04:27:52;;;;;;;1999.90;999.90;;;;;;;0.33;96.35;97977.56;5003497;28;20849;-64
2021/04/08 04:30:18;;;;;;;1999.90;999.90;;;;;;;0.53;95.80;97979.50;5001729;28;20353;-65
2021/04/08 04:32:44;;;;;;;1999.90;999.90;;;;;;;0.59;95.65;97982.25;5000836;28;20107;-64
2021/04/08 04:35:11;;;;;;;1999.90;999.90;;;;;;;0.82;94.75;97986.34;5003162;28;20137;-65
2021/04/08 04:37:37;;;;;;;1999.90;999.90;;;;;;;0.92;94.18;97997.25;5003331;28;20127;-65
2021/04/08 04:40:05;;;;;;;1999.90;999.90;;;;;;;0.87;93.88;97997.25;4995713;28;20057;-65
2021/04/08 04:42:31;;;;;;;1999.90;999.90;;;;;;;1.04;93.58;97989.66;5000048;28;20124;-65
2021/04/08 04:44:57;;;;;;;1999.90;999.90;;;;;;;1.07;92.54;98001.06;5001250;28;20050;-64
2021/04/08 04:47:24;;;;;;;1999.90;999.90;;;;;;;0.89;93.01;98003.22;5005002;28;20105;-65
2021/04/08 04:49:50;;;;;;;1999.90;999.90;;;;;;;0.85;92.94;98008.41;5000226;28;20058;-64
2021/04/08 04:52:16;;;;;;;1999.90;999.90;;;;;;;0.65;95.08;98014.63;5007280;28;20057;-64
2021/04/08 04:54:43;;;;;;;1999.90;999.90;;;;;;;1.10;94.08;98025.03;5000582;28;20454;-64
2021/04/08 04:57:09;;;;;;;1999.90;999.90;;;;;;;1.08;93.37;98030.75;5011017;28;20058;-64
2021/04/08 04:59:36;;;;;;;1999.90;999.90;;;;;;;0.95;93.95;98036.72;5008435;28;20061;-64
2021/04/08 05:02:02;;;;;;;1999.90;999.90;;;;;;;1.17;92.24;98041.94;5004137;28;20053;-64
2021/04/08 05:04:28;;;;;;;1999.90;999.90;;;;;;;0.83;93.38;98047.88;5000605;28;20070;-64
2021/04/08 05:06:54;;;;;;;1999.90;999.90;;;;;;;1.26;92.71;98051.19;5006297;28;20448;-64
2021/04/08 05:09:20;;;;;;;1999.90;999.90;;;;;;;1.05;92.25;98048.44;5004887;28;20054;-64
2021/04/08 05:11:47;;;;;;;1999.90;999.90;;;;;;;1.11;92.51;98043.03;4999412;28;20050;-64
2021/04/08 05:14:14;;;;;;;1999.90;999.90;;;;;;;1.27;92.67;98052.03;5004564;28;20528;-65
2021/04/08 05:16:40;;;;;;;1999.90;999.90;;;;;;;1.43;91.51;98048.19;4999898;28;20428;-64
2021/04/08 05:19:06;;;;;;;1999.90;999.90;;;;;;;1.20;92.70;98055.00;5007186;28;20805;-64
2021/04/08 05:21:32;;;;;;;1999.90;999.90;;;;;;;1.21;92.79;98054.72;5001954;28;20065;-64
2021/04/08 05:23:58;;;;;;;1999.90;999.90;;;;;;;1.36;91.43;98073.00;5029059;28;20050;-64
2021/04/08 05:26:24;;;;;;;1999.90;999.90;;;;;;;1.66;91.53;98062.34;5000565;28;20162;-64
2021/04/08 05:28:50;;;;;;;1999.90;999.90;;;;;;;1.84;90.51;98061.75;5000129;28;20064;-64
2021/04/08 05:31:16;;;;;;;1999.90;999.90;;;;;;;1.80;90.96;98065.31;5001555;28;20128;-64
2021/04/08 05:33:42;;;;;;;1999.90;999.90;;;;;;;1.71;90.49;98076.81;5002673;28;20070;-63
2021/04/08 05:36:09;;;;;;;1999.90;999.90;;;;;;;2.03;89.45;98077.56;5004521;28;20462;-64
2021/04/08 05:38:35;;;;;;;1999.90;999.90;;;;;;;1.62;90.19;98089.31;4999975;28;20114;-64
2021/04/08 05:41:02;;;;;;;1999.90;999.90;;;;;;;1.32;92.42;98093.69;5002766;28;20108;-63
2021/04/08 05:43:28;;;;;;;1999.90;999.90;;;;;;;1.42;91.90;98092.06;4997018;28;20057;-63
2021/04/08 05:45:54;;;;;;;1999.90;999.90;;;;;;;1.49;91.70;98098.03;5008083;28;20056;-64
2021/04/08 05:48:20;;;;;;;1999.90;999.90;;;;;;;1.54;91.39;98095.34;5001091;28;20057;-64
2021/04/08 05:50:46;;;;;;;1999.90;999.90;;;;;;;1.61;91.07;98101.34;5010664;28;20053;-64
2021/04/08 05:53:12;;;;;;;1999.90;999.90;;;;;;;1.61;90.19;98106.78;5002891;28;20057;-64
2021/04/08 05:55:38;;;;;;;1999.90;999.90;;;;;;;1.63;89.44;98120.16;5006822;28;20053;-64
2021/04/08 05:58:04;;;;;;;1999.90;999.90;;;;;;;2.10;88.92;98119.81;5002538;28;20065;-65
2021/04/08 06:00:30;;;;;;;1999.90;999.90;;;;;;;1.76;88.83;98123.13;5002590;28;20046;-64
2021/04/08 06:02:56;;;;;;;1999.90;999.90;;;;;;;1.84;89.34;98120.94;5006512;28;20505;-64
2021/04/08 06:05:23;;;;;;;1999.90;999.90;;;;;;;2.11;88.77;98126.91;5001355;28;20057;-65
2021/04/08 06:07:49;;;;;;;1999.90;999.90;;;;;;;2.46;87.10;98133.38;5002990;28;20645;-65
2021/04/08 06:10:16;;;;;;;1999.90;999.90;;;;;;;2.37;87.13;98137.75;4999735;28;20046;-65
2021/04/08 06:12:43;;;;;;;1999.90;999.90;;;;;;;2.71;85.65;98144.47;5011906;28;20056;-65
2021/04/08 06:15:11;;;;;;;1999.90;999.90;;;;;;;2.72;85.05;98141.44;5003148;28;20404;-65
2021/04/08 06:17:37;;;;;;;1999.90;999.90;;;;;;;2.52;85.83;98152.47;5006499;28;20050;-65
2021/04/08 06:20:05;;;;;;;1999.90;999.90;;;;;;;2.78;84.81;98153.19;4999169;28;20052;-65
2021/04/08 06:22:31;;;;;;;1999.90;999.90;;;;;;;2.59;85.73;98158.44;5001269;28;20054;-65
2021/04/08 06:24:57;;;;;;;1999.90;999.90;;;;;;;2.58;85.98;98162.28;4998917;28;20059;-65
2021/04/08 06:27:24;;;;;;;1999.90;999.90;;;;;;;2.90;84.92;98158.31;5006381;28;20067;-65
2021/04/08 06:29:50;;;;;;;1999.90;999.90;;;;;;;2.58;86.07;98159.53;5002145;28;20062;-65
2021/04/08 06:32:16;;;;;;;1999.90;999.90;;;;;;;2.41;85.94;98157.97;5000586;28;20050;-64
2021/04/08 06:34:42;;;;;;;1999.90;999.90;;;;;;;2.67;86.24;98165.25;5005380;28;20057;-64
2021/04/08 06:37:08;;;;;;;1999.90;999.90;;;;;;;3.20;84.32;98162.00;5001849;28;20065;-65
2021/04/08 06:39:35;;;;;;;1999.90;999.90;;;;;;;3.29;83.09;98166.59;5001384;28;20085;-64
2021/04/08 06:42:03;;;;;;;1999.90;999.90;;;;;;;3.46;83.31;98168.13;5000850;28;20046;-65
2021/04/08 06:44:30;;;;;;;1999.90;999.90;;;;;;;3.30;82.74;98167.41;5007319;28;20081;-65
2021/04/08 06:47:03;;;;;;;1999.90;999.90;;;;;;;3.53;83.31;98172.19;4995238;28;20820;-65
2021/04/08 06:49:29;;;;;;;1999.90;999.90;;;;;;;3.55;81.82;98179.28;5008492;28;20072;-65
2021/04/08 06:51:58;;;;;;;1999.90;999.90;;;;;;;3.15;81.58;98173.78;5007782;28;20053;-65
2021/04/08 06:54:26;;;;;;;1999.90;999.90;;;;;;;2.97;81.80;98180.69;5005726;28;20100;-65
2021/04/08 06:56:53;;;;;;;1999.90;999.90;;;;;;;2.78;81.70;98184.06;5011760;28;20680;-65
2021/04/08 06:59:19;;;;;;;1999.90;999.90;;;;;;;2.25;81.79;98186.38;5003205;28;20054;-65
2021/04/08 07:01:46;;;;;;;1999.90;999.90;;;;;;;2.66;82.26;98191.72;5008525;28;20046;-65
2021/04/08 07:04:14;;;;;;;1999.90;999.90;;;;;;;2.63;81.53;98190.38;5001197;28;20060;-65
2021/04/08 07:06:41;;;;;;;1999.90;999.90;;;;;;;3.07;80.95;98197.03;5004371;28;20053;-65
2021/04/08 07:09:10;;;;;;;1999.90;999.90;;;;;;;2.89;80.08;98200.38;5005713;28;20131;-65
2021/04/08 07:11:39;;;;;;;1999.90;999.90;;;;;;;2.43;81.03;98196.69;5008430;28;20457;-64
2021/04/08 07:14:08;;;;;;;1999.90;999.90;;;;;;;2.32;81.53;98203.25;5010701;28;20471;-64
2021/04/08 07:16:35;;;;;;;1999.90;999.90;;;;;;;3.06;81.45;98211.78;5000654;28;20059;-64
2021/04/08 07:19:03;;;;;;;1999.90;999.90;;;;;;;2.89;80.86;98216.75;5007575;28;20049;-64
2021/04/08 07:21:32;;;;;;;1999.90;999.90;;;;;;;2.56;82.33;98225.34;5000694;28;20100;-64
2021/04/08 07:24:11;;;;;;;1999.90;999.90;;;;;;;1.88;85.94;98239.31;5007231;28;20107;-64
2021/04/08 07:26:56;;;;;;;1999.90;999.90;;;;;;;1.45;90.12;98249.59;5001863;28;20061;-64
2021/04/08 07:29:43;;;;;;;1999.90;999.90;;;;;;;1.64;90.28;98258.91;5006649;28;20505;-64
2021/04/08 07:32:11;;;;;;;1999.90;999.90;;;;;;;1.67;88.08;98255.63;5001990;28;20054;-64
2021/04/08 07:34:45;;;;;;;1999.90;999.90;;;;;;;1.85;87.49;98258.94;5002268;28;20191;-64
2021/04/08 07:37:13;;;;;;;1999.90;999.90;;;;;;;1.87;85.07;98268.47;5010347;28;20103;-64
2021/04/08 07:39:45;;;;;;;1999.90;999.90;;;;;;;1.95;86.18;98269.84;4997822;28;20457;-64
2021/04/08 07:42:23;;;;;;;1999.90;999.90;;;;;;;1.98;83.99;98277.50;5009596;28;20050;-64
2021/04/08 07:44:50;;;;;;;1999.90;999.90;;;;;;;2.10;83.97;98269.84;5010880;28;20050;-64
2021/04/08 07:47:24;;;;;;;1999.90;999.90;;;;;;;2.50;82.87;98272.88;5006626;28;20065;-66
2021/04/08 07:49:55;;;;;;;1999.90;999.90;;;;;;;2.52;83.10;98273.41;5010614;28;20049;-66
2021/04/08 07:52:37;;;;;;;1999.90;999.90;;;;;;;2.69;82.24;98270.34;5003116;28;20049;-66
2021/04/08 07:55:13;;;;;;;1999.90;999.90;;;;;;;3.14;80.16;98274.06;5006532;28;20057;-67
2021/04/08 07:58:09;;;;;;;1999.90;999.90;;;;;;;2.96;79.92;98277.38;4994544;28;20061;-67
2021/04/08 08:00:38;;;;;;;1999.90;999.90;;;;;;;3.13;79.37;98282.56;4998203;28;20053;-68
2021/04/08 08:03:12;;;;;;;1999.90;999.90;;;;;;;3.00;78.16;98282.00;5006983;28;20058;-68
2021/04/08 08:05:46;;;;;;;1999.90;999.90;;;;;;;3.15;77.21;98285.81;5001264;28;20065;-68
2021/04/08 08:08:21;;;;;;;1999.90;999.90;;;;;;;3.35;76.95;98288.47;5005159;28;20072;-69
2021/04/08 08:10:59;;;;;;;1999.90;999.90;;;;;;;2.77;74.09;98297.09;5002365;28;20053;-68
2021/04/08 08:13:33;;;;;;;1999.90;999.90;;;;;;;2.70;75.23;98291.13;5003643;28;20133;-70
2021/04/08 08:16:01;;;;;;;1999.90;999.90;;;;;;;2.71;77.22;98306.41;5003382;28;20532;-70
2021/04/08 08:18:32;;;;;;;1999.90;999.90;;;;;;;3.24;76.93;98303.25;5001334;28;20046;-70
2021/04/08 08:21:01;;;;;;;1999.90;999.90;;;;;;;3.51;73.87;98305.63;5006123;28;20524;-70
2021/04/08 08:23:45;;;;;;;1999.90;999.90;;;;;;;3.12;73.04;98303.56;5003939;28;20057;-70
2021/04/08 08:26:38;;;;;;;1999.90;999.90;;;;;;;3.69;72.21;98311.53;5019203;28;20061;-71
2021/04/08 08:29:04;;;;;;;;;;;;;;;3.65;71.04;98310.50;5007886;28;20066;-68
2021/04/08 08:31:42;;;;;;;1999.90;999.90;;;;;;;3.87;70.57;98313.66;5001217;28;20024;-69
2021/04/08 08:34:16;;;;;;;1999.90;999.90;;;;;;;4.37;69.17;98318.22;4998729;28;20045;-68
2021/04/08 08:36:45;;;;;;;1999.90;999.90;;;;;;;4.44;67.54;98310.50;5002658;28;20050;-68
2021/04/08 08:39:17;;;;;;;1999.90;999.90;;;;;;;4.61;65.85;98310.09;4999856;28;20058;-67
2021/04/08 08:41:46;;;;;;;1999.90;999.90;;;;;;;4.03;68.45;98327.22;5004393;28;20152;-68
2021/04/08 08:44:15;;;;;;;1999.90;999.90;;;;;;;3.13;74.77;98337.19;4999389;28;20052;-68
2021/04/08 08:47:16;;;;;;;1999.90;999.90;;;;;;;3.20;76.24;98342.34;5001664;28;20552;-68
2021/04/08 08:49:46;;;;;;;1999.90;999.90;;;;;;;3.07;74.11;98330.13;5005697;28;20085;-67
2021/04/08 08:52:21;;;;;;;1999.90;999.90;;;;;;;3.40;73.40;98331.38;4998275;28;20049;-67
2021/04/08 08:54:48;;;;;;;1999.90;999.90;;;;;;;4.05;71.78;98330.50;5007660;28;20053;-67
2021/04/08 08:57:15;;;;;;;1999.90;999.90;;;;;;;4.82;70.36;98334.56;5001738;28;20049;-68
2021/04/08 08:59:43;;;;;;;1999.90;999.90;;;;;;;5.14;66.66;98327.69;5005582;28;20057;-68
2021/04/08 09:02:10;;;;;;;1999.90;999.90;;;;;;;4.72;66.26;98335.50;5003833;28;20050;-68
2021/04/08 09:04:36;;;;;;;1999.90;999.90;;;;;;;3.90;65.73;98338.78;5001832;28;20058;-68
2021/04/08 09:07:06;;;;;;;1999.90;999.90;;;;;;;4.70;67.15;98341.22;5005653;28;20050;-68
2021/04/08 09:09:34;;;;;;;1999.90;999.90;;;;;;;5.44;65.50;98338.28;4995729;28;20046;-69
2021/04/08 09:12:04;;;;;;;1999.90;999.90;;;;;;;5.20;64.33;98343.78;5002601;28;20071;-70
2021/04/08 09:14:32;;;;;;;1999.90;999.90;;;;;;;5.05;66.76;98338.47;5001931;28;20061;-70
2021/04/08 09:16:59;;;;;;;1999.90;999.90;;;;;;;4.97;67.17;98348.09;5015113;28;20417;-68
2021/04/08 09:19:31;;;;;;;1999.90;999.90;;;;;;;4.97;68.71;98358.25;5001932;28;20761;-67
2021/04/08 09:22:09;;;;;;;1999.90;999.90;;;;;;;4.00;68.68;98366.09;5006585;28;20053;-66
2021/04/08 09:24:39;;;;;;;1999.90;999.90;;;;;;;4.48;69.04;98377.31;5001374;28;20107;-66
2021/04/08 09:27:08;;;;;;;1999.90;999.90;;;;;;;4.41;68.37;98383.09;5005658;28;20116;-64
2021/04/08 09:29:42;;;;;;;1999.90;999.90;;;;;;;4.20;72.06;98392.56;5003048;28;20274;-64
2021/04/08 09:32:24;;;;;;;1999.90;999.90;;;;;;;3.72;77.13;98403.16;4998700;28;20479;-63
2021/04/08 09:35:06;;;;;;;1999.90;999.90;;;;;;;3.16;83.55;98408.50;4997494;28;20061;-64
2021/04/08 09:37:44;;;;;;;1999.90;999.90;;;;;;;3.44;85.66;98410.91;5003751;28;20046;-65
2021/04/08 09:40:43;;;;;;;1999.90;999.90;;;;;;;3.44;82.91;98406.25;5001487;28;20050;-64
2021/04/08 09:43:13;;;;;;;1999.90;999.90;;;;;;;3.92;80.28;98413.22;4997816;28;20049;-65
2021/04/08 09:45:57;;;;;;;1999.90;999.90;;;;;;;4.18;76.78;98406.53;5003712;28;20049;-64
2021/04/08 09:48:25;;;;;;;1999.90;999.90;;;;;;;4.03;78.03;98406.56;5008279;28;20061;-64
2021/04/08 09:51:01;;;;;;;1999.90;999.90;;;;;;;4.32;77.88;98417.66;5005331;28;20050;-64
2021/04/08 09:53:49;;;;;;;1999.90;999.90;;;;;;;4.80;76.62;98421.72;5000224;28;20085;-63
2021/04/08 09:56:16;;;;;;;1999.90;999.90;;;;;;;4.18;78.34;98425.69;5007119;28;20572;-64
2021/04/08 09:58:55;;;;;;;1999.90;999.90;;;;;;;3.05;80.89;98434.22;5001231;28;20112;-64
2021/04/08 10:01:21;;;;;;;1999.90;999.90;;;;;;;2.87;82.56;98456.59;5004668;28;20140;-64
2021/04/08 10:03:47;;;;;;;1999.90;999.90;;;;;;;3.52;82.54;98440.41;5004026;28;20049;-64
2021/04/08 10:06:16;;;;;;;1999.90;999.90;;;;;;;3.37;81.93;98452.19;5004607;28;20058;-65
2021/04/08 10:08:43;;;;;;;1999.90;999.90;;;;;;;4.61;81.28;98440.75;4997792;28;20053;-65
2021/04/08 10:11:29;;;;;;;1999.90;999.90;;;;;;;4.25;79.10;98454.66;5002725;28;20050;-63
2021/04/08 10:13:56;;;;;;;1999.90;999.90;;;;;;;4.06;77.76;98463.47;4998974;28;20065;-64
2021/04/08 10:16:23;;;;;;;1999.90;999.90;;;;;;;3.63;78.64;98460.34;5000521;28;20054;-64
2021/04/08 10:18:59;;;;;;;1999.90;999.90;;;;;;;4.16;77.00;98457.97;4996217;28;20050;-64
2021/04/08 10:21:26;;;;;;;1999.90;999.90;;;;;;;4.44;75.16;98452.06;5000117;28;20058;-64
2021/04/08 10:23:54;;;;;;;1999.90;999.90;;;;;;;4.26;73.96;98453.53;4999981;28;20046;-64
2021/04/08 10:26:28;;;;;;;1999.90;999.90;;;;;;;3.86;74.34;98454.25;5011797;28;20050;-64
2021/04/08 10:28:56;;;;;;;1999.90;999.90;;;;;;;3.84;73.14;98456.47;4999085;28;20057;-64
2021/04/08 10:31:31;;;;;;;1999.90;999.90;;;;;;;4.11;73.06;98454.44;5003883;28;20050;-64
2021/04/08 10:34:08;;;;;;;1999.90;999.90;;;;;;;4.29;72.42;98461.19;5000741;28;20049;-64
2021/04/08 10:36:39;;;;;;;1999.90;999.90;;;;;;;4.49;73.02;98454.78;5005626;28;20516;-64
2021/04/08 10:39:14;;;;;;;1999.90;999.90;;;;;;;5.07;71.29;98454.09;4997457;28;20054;-65
2021/04/08 10:42:04;;;;;;;1999.90;999.90;;;;;;;6.08;67.69;98455.31;5004417;28;20042;-66
2021/04/08 10:44:34;;;;;;;;;;;;;;;6.50;66.48;98456.38;4996582;28;20050;-66
2021/04/08 10:47:06;;;;;;;1999.90;999.90;;;;;;;6.77;63.56;98452.16;5000335;28;20328;-65
2021/04/08 10:49:55;;;;;;;1999.90;999.90;;;;;;;6.14;65.40;98456.88;5004800;28;20057;-65
2021/04/08 10:52:32;;;;;;;1999.90;999.90;;;;;;;7.21;64.93;98453.66;5000446;28;20053;-64
2021/04/08 10:55:01;;;;;;;1999.90;999.90;;;;;;;7.54;61.85;98457.19;5003744;28;20560;-64
2021/04/08 10:57:28;;;;;;;1999.90;999.90;;;;;;;6.84;62.84;98460.84;5003591;28;20045;-65
2021/04/08 10:59:55;;;;;;;1999.90;999.90;;;;;;;6.08;65.15;98456.09;5002015;28;20058;-64
2021/04/08 11:02:27;;;;;;;1999.90;999.90;;;;;;;6.06;65.99;98463.00;5004225;28;20053;-64
2021/04/08 11:04:55;;;;;;;1999.90;999.90;;;;;;;5.55;65.63;98476.16;4998969;28;20057;-63
2021/04/08 11:07:23;;;;;;;1999.90;999.90;;;;;;;4.10;72.34;98527.50;4997169;28;20054;-63
2021/04/08 11:09:50;;;;;;;1999.90;999.90;;;;;;;2.41;84.35;98537.34;4999566;28;20053;-64
2021/04/08 11:12:26;;;;;;;1999.90;999.90;;;;;;;2.18;87.51;98541.34;5004186;28;20054;-64
2021/04/08 11:15:02;;;;;;;1999.90;999.90;;;;;;;1.70;91.95;98540.53;4995323;28;20108;-64